地図

経路データ

SID SEASON NUMBER BASIN SUBBASIN NAME ISO_TIME NATURE LAT LON WMO_WIND WMO_PRES WMO_AGENCY TRACK_TYPE DIST2LAND LANDFALL IFLAG USA_AGENCY USA_ATCF_ID USA_LAT USA_LON USA_RECORD USA_STATUS USA_WIND USA_PRES USA_SSHS USA_R34_NE USA_R34_SE USA_R34_SW USA_R34_NW USA_R50_NE USA_R50_SE USA_R50_SW USA_R50_NW USA_R64_NE USA_R64_SE USA_R64_SW USA_R64_NW USA_POCI USA_ROCI USA_RMW USA_EYE TOKYO_LAT TOKYO_LON TOKYO_GRADE TOKYO_WIND TOKYO_PRES TOKYO_R50_DIR TOKYO_R50_LONG TOKYO_R50_SHORT TOKYO_R30_DIR TOKYO_R30_LONG TOKYO_R30_SHORT TOKYO_LAND CMA_LAT CMA_LON CMA_CAT CMA_WIND CMA_PRES HKO_LAT HKO_LON HKO_CAT HKO_WIND HKO_PRES NEWDELHI_LAT NEWDELHI_LON NEWDELHI_GRADE NEWDELHI_WIND NEWDELHI_PRES NEWDELHI_CI NEWDELHI_DP NEWDELHI_POCI REUNION_LAT REUNION_LON REUNION_TYPE REUNION_WIND REUNION_PRES REUNION_TNUM REUNION_CI REUNION_RMW REUNION_R34_NE REUNION_R34_SE REUNION_R34_SW REUNION_R34_NW REUNION_R50_NE REUNION_R50_SE REUNION_R50_SW REUNION_R50_NW REUNION_R64_NE REUNION_R64_SE REUNION_R64_SW REUNION_R64_NW BOM_LAT BOM_LON BOM_TYPE BOM_WIND BOM_PRES BOM_TNUM BOM_CI BOM_RMW BOM_R34_NE BOM_R34_SE BOM_R34_SW BOM_R34_NW BOM_R50_NE BOM_R50_SE BOM_R50_SW BOM_R50_NW BOM_R64_NE BOM_R64_SE BOM_R64_SW BOM_R64_NW BOM_ROCI BOM_POCI BOM_EYE BOM_POS_METHOD BOM_PRES_METHOD NADI_LAT NADI_LON NADI_CAT NADI_WIND NADI_PRES WELLINGTON_LAT WELLINGTON_LON WELLINGTON_WIND WELLINGTON_PRES DS824_LAT DS824_LON DS824_STAGE DS824_WIND DS824_PRES TD9636_LAT TD9636_LON TD9636_STAGE TD9636_WIND TD9636_PRES TD9635_LAT TD9635_LON TD9635_WIND TD9635_PRES TD9635_ROCI NEUMANN_LAT NEUMANN_LON NEUMANN_CLASS NEUMANN_WIND NEUMANN_PRES MLC_LAT MLC_LON MLC_CLASS MLC_WIND MLC_PRES USA_GUST BOM_GUST BOM_GUST_PER REUNION_GUST REUNION_GUST_PER USA_SEAHGT USA_SEARAD_NE USA_SEARAD_SE USA_SEARAD_SW USA_SEARAD_NW STORM_SPEED STORM_DIR
1887282N18280 1887 63 NA CS NOT_NAMED 1887-10-09 06:00:00 TS 17.8000 -79.7000 spur-merge 144 144 _____________O -1 17.8000 -79.7000 TD 30 4 285
1887282N18280 1887 63 NA CS NOT_NAMED 1887-10-09 09:00:00 TS 17.8500 -79.9000 spur-merge 162 162 _____________P -1 17.8500 -79.9000 TD 35 4 285
1887282N18280 1887 63 NA CS NOT_NAMED 1887-10-09 12:00:00 TS 17.9000 -80.1000 spur-merge 182 182 _____________O -1 17.9000 -80.1000 TS 40 4 285
1887282N18280 1887 63 NA CS NOT_NAMED 1887-10-09 15:00:00 TS 17.9500 -80.3000 spur-merge 203 202 _____________P -1 17.9500 -80.3000 TS 45 4 285
1887282N18280 1887 63 NA CS NOT_NAMED 1887-10-09 18:00:00 TS 18.0000 -80.5000 spur-merge 223 223 _____________O -1 18.0000 -80.5000 TS 50 4 285
1887282N18280 1887 63 NA CS NOT_NAMED 1887-10-09 21:00:00 TS 18.0500 -80.6925 spur-merge 244 243 _____________P -1 18.0500 -80.6925 TS 55 4 285
1887282N18280 1887 63 NA CS NOT_NAMED 1887-10-10 00:00:00 TS 18.1000 -80.9000 spur-merge 264 264 _____________O -1 18.1000 -80.9000 TS 60 4 284
1887282N18280 1887 63 NA CS NOT_NAMED 1887-10-10 03:00:00 TS 18.1575 -81.1500 spur-merge 285 285 _____________P -1 18.1575 -81.1500 TS 65 5 282
1887282N18280 1887 63 NA CS NOT_NAMED 1887-10-10 06:00:00 TS 18.2000 -81.4000 spur-merge 316 316 _____________O -1 18.2000 -81.4000 HU 70 4 276
1887282N18280 1887 63 NA CS NOT_NAMED 1887-10-10 09:00:00 TS 18.2000 -81.6076 spur-merge 338 338 _____________P -1 18.2000 -81.6076 HU 77 4 270
1887282N18280 1887 63 NA CS NOT_NAMED 1887-10-10 12:00:00 TS 18.2000 -81.8000 spur-merge 359 357 _____________O -1 18.2000 -81.8000 HU 85 4 277
1887282N18280 1887 63 NA CS NOT_NAMED 1887-10-10 15:00:00 TS 18.2425 -82.0000 spur-merge 357 352 _____________P -1 18.2425 -82.0000 HU 92 4 285
1887282N18280 1887 63 NA CS NOT_NAMED 1887-10-10 18:00:00 NR 18.3000 -82.2000 spur-merge 352 338 _____________O -1 18.3000 -82.2000 MH 100 4 287
1887282N18280 1887 63 NA CS NOT_NAMED 1887-10-10 21:00:00 NR 18.3575 -82.3925 spur-merge 338 336 _____________P -1 18.3575 -82.3925 MH 100 4 285
1887282N18280 1887 63 NA CS NOT_NAMED 1887-10-11 00:00:00 NR 18.4000 -82.6000 spur-merge 336 331 _____________O -1 18.4000 -82.6000 MH 100 4 276
1887282N18280 1887 63 NA CS NOT_NAMED 1887-10-11 03:00:00 NR 18.4000 -82.8501 spur-merge 326 317 _____________P -1 18.4000 -82.8501 MH 100 5 270
1887282N18280 1887 63 NA CS NOT_NAMED 1887-10-11 06:00:00 NR 18.4000 -83.1000 spur-merge 317 309 _____________O -1 18.4000 -83.1000 MH 100 4 276
1887282N18280 1887 63 NA CS NOT_NAMED 1887-10-11 09:00:00 NR 18.4424 -83.3000 spur-merge 309 309 _____________P -1 18.4424 -83.3000 MH 100 4 285
1887282N18280 1887 63 NA CS NOT_NAMED 1887-10-11 12:00:00 NR 18.5000 -83.5000 spur-merge 313 308 _____________O -1 18.5000 -83.5000 MH 100 4 284
1887282N18280 1887 63 NA CS NOT_NAMED 1887-10-11 15:00:00 NR 18.5500 -83.7500 spur-merge 319 311 _____________P -1 18.5500 -83.7500 MH 100 5 282
1887282N18280 1887 63 NA CS NOT_NAMED 1887-10-11 18:00:00 NR 18.6000 -84.0000 spur-merge 311 306 _____________O -1 18.6000 -84.0000 MH 100 4 283
1887282N18280 1887 63 NA CS NOT_NAMED 1887-10-11 21:00:00 NR 18.6500 -84.2075 spur-merge 306 306 _____________P -1 18.6500 -84.2075 MH 100 4 285
1887282N18280 1887 63 NA CS NOT_NAMED 1887-10-12 00:00:00 NR 18.7000 -84.4000 spur-merge 314 304 _____________O -1 18.7000 -84.4000 MH 100 4 286
1887282N18280 1887 63 NA CS NOT_NAMED 1887-10-12 03:00:00 NR 18.7575 -84.6000 spur-merge 304 284 _____________P -1 18.7575 -84.6000 MH 100 4 285
1887282N18280 1887 63 NA CS NOT_NAMED 1887-10-12 06:00:00 NR 18.8000 -84.8000 spur-merge 284 263 _____________O -1 18.8000 -84.8000 MH 100 4 275
1887282N18280 1887 63 NA CS NOT_NAMED 1887-10-12 09:00:00 NR 18.7925 -85.0001 spur-merge 263 244 _____________P -1 18.7925 -85.0001 MH 100 4 270
1887282N18280 1887 63 NA CS NOT_NAMED 1887-10-12 12:00:00 NR 18.8000 -85.2000 spur-merge 244 220 _____________O -1 18.8000 -85.2000 MH 100 4 284
1887282N18280 1887 63 NA CS NOT_NAMED 1887-10-12 15:00:00 NR 18.8850 -85.4000 spur-merge 220 197 _____________P -1 18.8850 -85.4000 MH 100 4 298
1887282N18280 1887 63 NA CS NOT_NAMED 1887-10-12 18:00:00 NR 19.0000 -85.6000 spur-merge 197 173 _____________O -1 19.0000 -85.6000 MH 100 4 300
1887282N18280 1887 63 NA CS NOT_NAMED 1887-10-12 21:00:00 NR 19.1000 -85.8000 spur-merge 173 150 _____________P -1 19.1000 -85.8000 MH 100 4 298
1887282N18280 1887 63 NA CS NOT_NAMED 1887-10-13 00:00:00 NR 19.2000 -86.0000 spur-merge 150 127 _____________O -1 19.2000 -86.0000 MH 100 4 298
1887282N18280 1887 63 NA CS NOT_NAMED 1887-10-13 03:00:00 NR 19.3000 -86.2000 spur-merge 127 105 _____________P -1 19.3000 -86.2000 MH 100 4 298
1887282N18280 1887 63 NA CS NOT_NAMED 1887-10-13 06:00:00 NR 19.4000 -86.4000 spur-merge 105 83 _____________O -1 19.4000 -86.4000 MH 100 4 298
1887282N18280 1887 63 NA CS NOT_NAMED 1887-10-13 09:00:00 NR 19.5075 -86.6075 spur-merge 83 63 _____________P -1 19.5075 -86.6075 MH 100 4 298
1887282N18280 1887 63 NA CS NOT_NAMED 1887-10-13 12:00:00 NR 19.6000 -86.8000 spur-merge 63 53 _____________O -1 19.6000 -86.8000 MH 100 4 295
1887282N18280 1887 63 NA CS NOT_NAMED 1887-10-13 15:00:00 NR 19.6574 -86.9501 spur-merge 47 38 _____________P -1 19.6574 -86.9501 MH 100 3 290
1887282N18280 1887 63 NA CS NOT_NAMED 1887-10-13 18:00:00 NR 19.7000 -87.1000 spur-merge 38 23 _____________O -1 19.7000 -87.1000 MH 100 3 286
1887282N18280 1887 63 NA CS NOT_NAMED 1887-10-13 21:00:00 NR 19.7500 -87.3000 spur-merge 20 0 _____________P -1 19.7500 -87.3000 MH 95 4 285
1887282N18280 1887 63 NA CS NOT_NAMED 1887-10-14 00:00:00 TS 19.8000 -87.5000 spur-merge 0 0 _____________O -1 19.8000 -87.5000 HU 90 3 285
1887282N18280 1887 63 NA NA NOT_NAMED 1887-10-14 03:00:00 TS 19.8425 -87.6575 spur-merge 0 0 _____________P -1 19.8425 -87.6575 HU 85 3 290
1887282N18280 1887 63 NA NA NOT_NAMED 1887-10-14 06:00:00 TS 19.9000 -87.8000 spur-merge 0 0 _____________O -1 19.9000 -87.8000 HU 80 3 300
1887282N18280 1887 63 NA NA NOT_NAMED 1887-10-14 09:00:00 TS 20.0000 -87.9500 spur-merge 0 0 _____________P -1 20.0000 -87.9500 HU 75 3 305
1887282N18280 1887 63 NA NA NOT_NAMED 1887-10-14 12:00:00 TS 20.1000 -88.1000 spur-merge 0 0 _____________O -1 20.1000 -88.1000 HU 70 3 300
1887282N18280 1887 63 NA NA NOT_NAMED 1887-10-14 15:00:00 TS 20.1575 -88.2425 spur-merge 0 0 _____________P -1 20.1575 -88.2425 HU 67 3 290
1887282N18280 1887 63 NA NA NOT_NAMED 1887-10-14 18:00:00 TS 20.2000 -88.4000 spur-merge 0 0 _____________O -1 20.2000 -88.4000 HU 65 3 285
1887282N18280 1887 63 NA NA NOT_NAMED 1887-10-14 21:00:00 TS 20.2500 -88.6000 spur-merge 0 0 _____________P -1 20.2500 -88.6000 HU 62 4 285
1887282N18280 1887 63 NA NA NOT_NAMED 1887-10-15 00:00:00 TS 20.3000 -88.8000 spur-merge 0 0 _____________O -1 20.3000 -88.8000 TS 60 4 287
1887282N18280 1887 63 NA NA NOT_NAMED 1887-10-15 03:00:00 TS 20.3500 -88.9575 spur-merge 0 0 _____________P -1 20.3500 -88.9575 TS 57 3 290
1887282N18280 1887 63 NA NA NOT_NAMED 1887-10-15 06:00:00 TS 20.4000 -89.1000 spur-merge 0 0 _____________O -1 20.4000 -89.1000 TS 55 3 290
1887282N18280 1887 63 NA NA NOT_NAMED 1887-10-15 09:00:00 TS 20.4500 -89.2500 spur-merge 0 0 _____________P -1 20.4500 -89.2500 TS 52 3 290
1887282N18280 1887 63 NA NA NOT_NAMED 1887-10-15 12:00:00 TS 20.5000 -89.4000 spur-merge 0 0 _____________O -1 20.5000 -89.4000 TS 50 3 290
1887282N18280 1887 63 NA NA NOT_NAMED 1887-10-15 15:00:00 TS 20.5500 -89.5425 spur-merge 0 0 _____________P -1 20.5500 -89.5425 TS 50 3 290
1887282N18280 1887 63 NA NA NOT_NAMED 1887-10-15 18:00:00 TS 20.6000 -89.7000 spur-merge 0 0 _____________O -1 20.6000 -89.7000 TS 50 3 284
1887282N18280 1887 63 NA NA NOT_NAMED 1887-10-15 21:00:00 TS 20.6350 -89.9000 spur-merge 0 0 _____________P -1 20.6350 -89.9000 TS 50 4 285
1887282N18280 1887 63 NA NA NOT_NAMED 1887-10-16 00:00:00 TS 20.7000 -90.1000 spur-merge 0 0 _____________O -1 20.7000 -90.1000 TS 50 4 298
1887282N18280 1887 63 NA NA NOT_NAMED 1887-10-16 03:00:00 TS 20.8125 -90.2650 spur-merge 0 0 _____________P -1 20.8125 -90.2650 TS 52 4 317
1887282N18280 1887 63 NA GM NOT_NAMED 1887-10-16 06:00:00 TS 21.0000 -90.4000 spur-merge 10 10 _____________O -1 21.0000 -90.4000 TS 55 5 333
1887282N18280 1887 63 NA GM NOT_NAMED 1887-10-16 09:00:00 TS 21.2700 -90.5075 spur-merge 30 30 _____________P -1 21.2700 -90.5075 TS 57 6 343
1887282N18280 1887 63 NA GM NOT_NAMED 1887-10-16 12:00:00 TS 21.6000 -90.6000 spur-merge 63 63 _____________O -1 21.6000 -90.6000 TS 60 7 345
1887282N18280 1887 63 NA GM NOT_NAMED 1887-10-16 15:00:00 TS 21.9425 -90.7075 spur-merge 98 98 _____________P -1 21.9475 -90.6974 TS 62 7 345
1887282N18280 1887 63 NA GM NOT_NAMED 1887-10-16 18:00:00 TS 22.3000 -90.8000 spur-merge 143 143 _____________O -1 22.3000 -90.8000 HU 65 7 349
1887282N18280 1887 63 NA GM NOT_NAMED 1887-10-16 21:00:00 TS 22.6500 -90.8502 spur-merge 178 ______________ -1 HU 7 354

IBTrACS Databaseについて

本データベースは、米国NOAAが公開する1842年以降の世界の熱帯低気圧のベストトラックデータアーカイブInternational Best Track Archive for Climate Stewardship (IBTrACS)を、ウェブで閲覧しやすい形式に変換したものです。

最終更新日:2021-11-26